createdAt,value
2022-12-05T00:00:28.812Z,69.20
2022-12-05T00:05:25.380Z,69.80
2022-12-05T00:10:16.406Z,72.27
2022-12-05T00:15:17.333Z,72.30
2022-12-05T00:20:09.869Z,69.80
2022-12-05T00:25:01.105Z,72.83
2022-12-05T00:29:54.886Z,72.90
2022-12-05T00:34:49.021Z,73.43
2022-12-05T00:39:40.317Z,74.88
2022-12-05T00:44:31.336Z,70.23
2022-12-05T00:49:24.542Z,73.13
2022-12-05T00:54:19.544Z,72.97
2022-12-05T00:59:13.452Z,73.30
2022-12-05T01:04:07.842Z,69.97
2022-12-05T01:09:11.985Z,71.88
2022-12-05T01:14:06.616Z,67.43
2022-12-05T01:19:00.609Z,67.38
2022-12-05T01:23:52.111Z,67.80
2022-12-05T01:28:44.220Z,64.88
2022-12-05T01:33:39.900Z,63.63
2022-12-05T01:38:34.679Z,61.70
2022-12-05T01:43:26.084Z,60.75
2022-12-05T01:48:25.351Z,59.88
2022-12-05T01:53:22.839Z,58.95
2022-12-05T01:58:14.614Z,59.47
2022-12-05T02:03:11.562Z,59.15
2022-12-05T02:08:07.780Z,59.67
2022-12-05T02:13:08.296Z,59.38
2022-12-05T02:18:09.840Z,59.75
2022-12-05T02:23:22.702Z,62.78
2022-12-05T02:28:38.016Z,62.05
2022-12-05T02:33:39.237Z,61.67
2022-12-05T02:38:35.059Z,61.22
2022-12-05T02:43:41.055Z,63.78
2022-12-05T02:48:37.678Z,59.05
2022-12-05T02:53:31.489Z,60.55
2022-12-05T02:58:29.147Z,60.65
2022-12-05T03:03:25.188Z,61.03
2022-12-05T03:08:25.643Z,60.03
2022-12-05T03:13:21.478Z,61.03
2022-12-05T03:18:19.460Z,63.17
2022-12-05T03:23:16.550Z,59.88
2022-12-05T03:28:17.968Z,63.55
2022-12-05T03:33:17.285Z,63.63
2022-12-05T03:38:15.180Z,63.28
2022-12-05T03:43:15.195Z,63.87
2022-12-05T03:48:14.395Z,63.67
2022-12-05T03:53:19.484Z,65.43
2022-12-05T03:58:21.149Z,71.63
2022-12-05T04:03:15.442Z,71.50
2022-12-05T04:08:10.531Z,75.60
2022-12-05T04:13:19.371Z,72.43
2022-12-05T04:18:16.721Z,73.57
2022-12-05T04:23:11.264Z,68.10
2022-12-05T04:28:14.484Z,69.53
2022-12-05T04:33:15.128Z,67.30
2022-12-05T04:38:14.593Z,70.40
2022-12-05T04:43:07.865Z,68.60
2022-12-05T04:48:02.216Z,70.20
2022-12-05T04:52:59.179Z,75.72
2022-12-05T04:58:02.403Z,73.63
2022-12-05T05:03:01.338Z,74.57
2022-12-05T05:08:03.722Z,77.00
2022-12-05T05:12:55.110Z,78.35
2022-12-05T05:17:46.111Z,77.30
2022-12-05T05:22:40.632Z,77.70
2022-12-05T05:27:34.961Z,75.80
2022-12-05T05:32:25.816Z,78.15
2022-12-05T05:37:17.135Z,77.15
2022-12-05T05:42:09.011Z,78.50
2022-12-05T05:47:04.144Z,79.47
2022-12-05T05:51:55.718Z,80.57
2022-12-05T05:56:48.114Z,76.93
2022-12-05T06:01:39.066Z,77.70
2022-12-05T06:06:36.235Z,78.63
2022-12-05T06:11:29.399Z,78.88
2022-12-05T06:16:21.737Z,79.63
2022-12-05T06:21:16.421Z,80.55
2022-12-05T06:26:14.935Z,80.27
2022-12-05T06:31:12.531Z,83.90
2022-12-05T06:36:09.491Z,79.28
2022-12-05T06:41:01.543Z,79.77
2022-12-05T06:45:58.835Z,83.38
2022-12-05T06:50:54.588Z,85.20
2022-12-05T06:55:45.357Z,83.23
2022-12-05T07:00:49.027Z,82.13
2022-12-05T07:05:45.377Z,84.43
2022-12-05T07:10:36.771Z,84.65
2022-12-05T07:15:31.904Z,82.43
2022-12-05T07:20:23.100Z,82.25
2022-12-05T07:25:17.279Z,81.13
2022-12-05T07:30:12.110Z,82.85
2022-12-05T07:35:03.610Z,89.25
2022-12-05T07:39:58.913Z,90.68
2022-12-05T07:44:53.800Z,88.57
2022-12-05T07:49:47.056Z,86.93
2022-12-05T07:54:38.139Z,90.43
2022-12-05T07:59:29.184Z,94.28
2022-12-05T08:04:25.095Z,89.18
2022-12-05T08:09:17.669Z,87.30
2022-12-05T08:14:10.219Z,89.27
2022-12-05T08:19:08.654Z,91.30
2022-12-05T08:24:04.914Z,89.85
2022-12-05T08:28:58.301Z,84.10
2022-12-05T08:33:55.560Z,89.60
2022-12-05T08:38:51.586Z,91.60
2022-12-05T08:43:46.518Z,86.38
2022-12-05T08:48:38.718Z,89.80
2022-12-05T08:53:30.798Z,90.00
2022-12-05T08:58:22.119Z,81.47
2022-12-05T09:03:35.694Z,87.73
2022-12-05T09:08:33.171Z,79.75
2022-12-05T09:13:24.994Z,81.03
2022-12-05T09:18:21.587Z,80.00
2022-12-05T09:23:16.115Z,81.20
2022-12-05T09:28:13.956Z,74.37
2022-12-05T09:33:06.379Z,76.27
2022-12-05T09:38:00.167Z,72.32
2022-12-05T09:43:05.134Z,69.35
2022-12-05T09:48:10.312Z,67.50
2022-12-05T09:53:28.436Z,63.85
2022-12-05T09:58:31.613Z,59.65
2022-12-05T10:03:32.591Z,56.83
2022-12-05T10:08:36.634Z,55.10
2022-12-05T10:13:49.513Z,55.38
2022-12-05T10:18:46.316Z,51.37
2022-12-05T10:23:58.368Z,49.33
2022-12-05T10:29:00.020Z,55.33
2022-12-05T10:33:55.555Z,55.03
2022-12-05T10:38:50.518Z,54.85
2022-12-05T10:43:47.475Z,55.72
2022-12-05T10:48:41.238Z,54.83
2022-12-05T10:53:39.610Z,52.63
2022-12-05T10:58:33.838Z,48.33
2022-12-05T11:03:33.066Z,51.28
2022-12-05T11:08:56.125Z,50.30
2022-12-05T11:13:56.985Z,40.70
2022-12-05T11:18:50.727Z,40.50
2022-12-05T11:23:43.424Z,41.35
2022-12-05T11:28:40.775Z,39.72
2022-12-05T11:33:36.262Z,38.70
2022-12-05T11:38:33.028Z,35.40
2022-12-05T11:43:48.722Z,33.58
2022-12-05T11:48:55.107Z,30.30
2022-12-05T11:55:02.823Z,29.00
2022-12-05T12:00:07.690Z,25.13
2022-12-05T12:05:21.954Z,25.70
2022-12-05T12:10:26.951Z,21.23
2022-12-05T12:15:36.846Z,22.45
2022-12-05T12:20:59.729Z,19.60
2022-12-05T12:26:07.591Z,16.25
2022-12-05T12:31:14.892Z,19.10
2022-12-05T12:36:20.006Z,17.98
2022-12-05T12:41:27.560Z,18.83
2022-12-05T12:46:43.793Z,15.53
2022-12-05T12:51:38.646Z,18.10
2022-12-05T12:56:44.628Z,17.80
2022-12-05T13:01:43.044Z,19.37
2022-12-05T13:06:49.329Z,18.33
2022-12-05T13:11:44.809Z,19.40
2022-12-05T13:16:46.162Z,18.53
2022-12-05T13:21:43.618Z,18.57
2022-12-05T13:26:37.376Z,17.20
2022-12-05T13:31:41.022Z,17.70
2022-12-05T13:36:44.398Z,18.13
2022-12-05T13:42:02.299Z,17.88
2022-12-05T13:46:54.256Z,18.00
2022-12-05T13:51:48.476Z,20.08
2022-12-05T13:57:04.385Z,20.65
2022-12-05T14:02:01.324Z,20.58
2022-12-05T14:07:01.396Z,20.43
2022-12-05T14:12:22.451Z,20.27
2022-12-05T14:17:17.666Z,22.40
2022-12-05T14:22:24.673Z,20.48
2022-12-05T14:27:22.540Z,24.13
2022-12-05T14:32:31.280Z,22.63
2022-12-05T14:37:30.758Z,23.57
2022-12-05T14:42:40.389Z,23.80
2022-12-05T14:47:38.363Z,23.00
2022-12-05T14:52:34.585Z,20.90
2022-12-05T14:57:29.724Z,19.40
2022-12-05T15:02:27.667Z,18.27
2022-12-05T15:07:25.709Z,20.98
2022-12-05T15:12:23.824Z,21.13
2022-12-05T15:17:21.760Z,18.00
2022-12-05T15:22:21.268Z,20.92
2022-12-05T15:27:19.635Z,19.85
2022-12-05T15:32:22.281Z,18.58
2022-12-05T15:37:19.092Z,17.80
2022-12-05T15:42:24.816Z,17.83
2022-12-05T15:47:31.036Z,15.82
2022-12-05T15:52:34.463Z,13.73
2022-12-05T15:57:37.077Z,16.58
2022-12-05T16:02:39.278Z,17.48
2022-12-05T16:07:39.145Z,16.75
2022-12-05T16:12:39.277Z,13.20
2022-12-05T16:17:32.399Z,13.52
2022-12-05T16:22:29.679Z,11.70
2022-12-05T16:27:25.808Z,14.15
2022-12-05T16:32:27.616Z,12.55
2022-12-05T16:37:27.617Z,12.43
2022-12-05T16:42:28.124Z,13.70
2022-12-05T16:47:28.501Z,12.80
2022-12-05T16:52:21.281Z,13.10
2022-12-05T16:57:15.523Z,11.88
2022-12-05T17:02:14.789Z,11.88
2022-12-05T17:07:10.100Z,11.85
2022-12-05T17:12:07.186Z,14.15
2022-12-05T17:17:03.201Z,13.00
2022-12-05T17:21:57.142Z,10.68
2022-12-05T17:26:56.731Z,10.73
2022-12-05T17:31:50.990Z,12.05
2022-12-05T17:36:43.398Z,10.73
2022-12-05T17:41:35.094Z,13.48
2022-12-05T17:46:30.677Z,14.53
2022-12-05T17:51:26.012Z,13.18
2022-12-05T17:56:19.814Z,15.25
2022-12-05T18:01:15.494Z,13.20
2022-12-05T18:06:10.691Z,13.07
2022-12-05T18:11:01.294Z,13.80
2022-12-05T18:15:52.778Z,10.00
2022-12-05T18:20:44.699Z,10.63
2022-12-05T18:25:38.257Z,12.13
2022-12-05T18:30:29.426Z,11.10
2022-12-05T18:35:40.803Z,12.25
2022-12-05T18:40:32.796Z,9.68
2022-12-05T18:45:26.492Z,10.85
2022-12-05T18:50:17.989Z,8.50
2022-12-05T18:55:17.126Z,6.70
2022-12-05T19:00:16.968Z,7.03
2022-12-05T19:05:11.455Z,8.00
2022-12-05T19:10:04.296Z,7.15
2022-12-05T19:15:01.047Z,7.77
2022-12-05T19:19:54.284Z,6.30
2022-12-05T19:24:50.990Z,5.18
2022-12-05T19:29:43.156Z,5.63
2022-12-05T19:34:34.659Z,4.90
2022-12-05T19:39:30.340Z,4.72
2022-12-05T19:44:26.618Z,4.43
2022-12-05T19:49:26.269Z,4.00
2022-12-05T19:54:22.636Z,3.33
2022-12-05T19:59:17.868Z,3.27
2022-12-05T20:04:14.871Z,2.33
2022-12-05T20:09:11.162Z,1.85
2022-12-05T20:14:04.931Z,2.85
2022-12-05T20:19:01.535Z,3.40
2022-12-05T20:23:59.001Z,3.42
2022-12-05T20:28:50.677Z,3.70
2022-12-05T20:33:42.244Z,2.50
2022-12-05T20:38:35.948Z,4.13
2022-12-05T20:43:36.210Z,3.58
2022-12-05T20:48:29.600Z,3.63
2022-12-05T20:53:22.838Z,4.37
2022-12-05T20:58:14.079Z,2.88
2022-12-05T21:03:15.620Z,2.85
2022-12-05T21:08:08.909Z,5.18
2022-12-05T21:13:01.542Z,7.07
2022-12-05T21:17:53.103Z,8.15
2022-12-05T21:22:47.986Z,8.85
2022-12-05T21:27:40.483Z,9.23
2022-12-05T21:32:35.196Z,9.47
2022-12-05T21:37:27.496Z,10.10
2022-12-05T21:42:21.210Z,10.13
2022-12-05T21:47:12.447Z,11.43
2022-12-05T21:52:06.680Z,7.45
2022-12-05T21:56:57.836Z,10.30
2022-12-05T22:01:54.696Z,9.25
2022-12-05T22:06:46.674Z,9.80
2022-12-05T22:11:37.775Z,9.60
2022-12-05T22:16:32.736Z,9.43
2022-12-05T22:21:27.237Z,9.45
2022-12-05T22:26:20.650Z,9.40
2022-12-05T22:31:19.167Z,11.43
2022-12-05T22:36:12.926Z,10.63
2022-12-05T22:41:08.625Z,10.10
2022-12-05T22:46:00.518Z,10.27
2022-12-05T22:50:53.173Z,10.07
2022-12-05T22:55:43.371Z,9.87
2022-12-05T23:00:38.551Z,10.90
2022-12-05T23:05:31.842Z,9.40
2022-12-05T23:10:26.332Z,10.77
2022-12-05T23:15:18.139Z,12.43
2022-12-05T23:20:12.579Z,11.18
2022-12-05T23:25:05.792Z,13.38
2022-12-05T23:30:02.305Z,12.73
2022-12-05T23:34:53.943Z,12.40
2022-12-05T23:39:48.549Z,12.47
2022-12-05T23:44:46.368Z,12.52
2022-12-05T23:49:38.628Z,12.20
2022-12-05T23:54:32.149Z,12.80
2022-12-05T23:59:27.763Z,13.93
